sensor_id;sensor_type;location;lat;lon;timestamp;temperature;humidity
51215;DHT22;63849;47.546;19.254;2024-01-15T00:01:57;-0.30;79.50
51215;DHT22;63849;47.546;19.254;2024-01-15T00:04:23;-0.30;79.40
51215;DHT22;63849;47.546;19.254;2024-01-15T00:06:49;-0.10;79.00
51215;DHT22;63849;47.546;19.254;2024-01-15T00:09:15;0.00;78.70
51215;DHT22;63849;47.546;19.254;2024-01-15T00:11:42;0.00;78.50
51215;DHT22;63849;47.546;19.254;2024-01-15T00:14:08;0.00;78.60
51215;DHT22;63849;47.546;19.254;2024-01-15T00:16:34;0.00;78.60
51215;DHT22;63849;47.546;19.254;2024-01-15T00:19:00;0.00;78.80
51215;DHT22;63849;47.546;19.254;2024-01-15T00:21:25;0.00;78.90
51215;DHT22;63849;47.546;19.254;2024-01-15T00:23:51;0.10;78.40
51215;DHT22;63849;47.546;19.254;2024-01-15T00:26:17;0.00;78.90
51215;DHT22;63849;47.546;19.254;2024-01-15T00:28:43;0.00;79.10
51215;DHT22;63849;47.546;19.254;2024-01-15T00:31:08;0.10;78.80
51215;DHT22;63849;47.546;19.254;2024-01-15T00:33:34;0.00;78.70
51215;DHT22;63849;47.546;19.254;2024-01-15T00:36:00;0.00;79.30
51215;DHT22;63849;47.546;19.254;2024-01-15T00:38:26;0.00;79.30
51215;DHT22;63849;47.546;19.254;2024-01-15T00:40:51;0.10;78.80
51215;DHT22;63849;47.546;19.254;2024-01-15T00:43:17;0.00;78.80
51215;DHT22;63849;47.546;19.254;2024-01-15T00:45:44;0.00;79.40
51215;DHT22;63849;47.546;19.254;2024-01-15T00:48:10;0.00;79.40
51215;DHT22;63849;47.546;19.254;2024-01-15T00:50:36;0.00;79.40
51215;DHT22;63849;47.546;19.254;2024-01-15T00:53:01;0.10;79.30
51215;DHT22;63849;47.546;19.254;2024-01-15T00:55:28;0.00;79.30
51215;DHT22;63849;47.546;19.254;2024-01-15T00:57:54;0.10;79.40
51215;DHT22;63849;47.546;19.254;2024-01-15T01:00:20;0.20;79.10
51215;DHT22;63849;47.546;19.254;2024-01-15T01:02:45;0.30;79.00
51215;DHT22;63849;47.546;19.254;2024-01-15T01:05:11;0.20;79.00
51215;DHT22;63849;47.546;19.254;2024-01-15T01:07:36;0.20;79.20
51215;DHT22;63849;47.546;19.254;2024-01-15T01:10:02;0.20;79.30
51215;DHT22;63849;47.546;19.254;2024-01-15T01:12:28;0.20;79.40
51215;DHT22;63849;47.546;19.254;2024-01-15T01:14:55;0.10;79.40
51215;DHT22;63849;47.546;19.254;2024-01-15T01:17:21;0.20;79.50
51215;DHT22;63849;47.546;19.254;2024-01-15T01:19:46;0.30;79.30
51215;DHT22;63849;47.546;19.254;2024-01-15T01:22:12;0.40;78.80
51215;DHT22;63849;47.546;19.254;2024-01-15T01:24:37;0.40;78.70
51215;DHT22;63849;47.546;19.254;2024-01-15T01:27:03;0.30;79.10
51215;DHT22;63849;47.546;19.254;2024-01-15T01:29:29;0.30;79.00
51215;DHT22;63849;47.546;19.254;2024-01-15T01:31:55;0.30;79.30
51215;DHT22;63849;47.546;19.254;2024-01-15T01:34:22;0.30;79.20
51215;DHT22;63849;47.546;19.254;2024-01-15T01:36:47;0.30;79.20
51215;DHT22;63849;47.546;19.254;2024-01-15T01:39:13;0.40;79.40
51215;DHT22;63849;47.546;19.254;2024-01-15T01:41:39;0.30;79.50
51215;DHT22;63849;47.546;19.254;2024-01-15T01:44:05;0.30;79.60
51215;DHT22;63849;47.546;19.254;2024-01-15T01:46:31;0.30;79.50
51215;DHT22;63849;47.546;19.254;2024-01-15T01:48:57;0.30;79.50
51215;DHT22;63849;47.546;19.254;2024-01-15T01:51:24;0.30;79.70
51215;DHT22;63849;47.546;19.254;2024-01-15T01:53:51;0.40;79.40
51215;DHT22;63849;47.546;19.254;2024-01-15T01:56:17;0.40;79.30
51215;DHT22;63849;47.546;19.254;2024-01-15T01:58:44;0.30;79.50
51215;DHT22;63849;47.546;19.254;2024-01-15T02:01:11;0.30;79.70
51215;DHT22;63849;47.546;19.254;2024-01-15T02:03:39;0.30;79.70
51215;DHT22;63849;47.546;19.254;2024-01-15T02:06:05;0.30;79.90
51215;DHT22;63849;47.546;19.254;2024-01-15T02:08:31;0.20;80.20
51215;DHT22;63849;47.546;19.254;2024-01-15T02:10:57;0.30;79.80
51215;DHT22;63849;47.546;19.254;2024-01-15T02:13:23;0.20;80.10
51215;DHT22;63849;47.546;19.254;2024-01-15T02:15:48;0.30;79.80
51215;DHT22;63849;47.546;19.254;2024-01-15T02:18:14;0.10;80.10
51215;DHT22;63849;47.546;19.254;2024-01-15T02:20:40;0.20;79.90
51215;DHT22;63849;47.546;19.254;2024-01-15T02:23:13;0.10;80.00
51215;DHT22;63849;47.546;19.254;2024-01-15T02:25:43;0.20;79.70
51215;DHT22;63849;47.546;19.254;2024-01-15T02:28:14;0.10;79.90
51215;DHT22;63849;47.546;19.254;2024-01-15T02:30:41;0.10;80.20
51215;DHT22;63849;47.546;19.254;2024-01-15T02:33:07;0.10;80.20
51215;DHT22;63849;47.546;19.254;2024-01-15T02:35:34;0.20;80.10
51215;DHT22;63849;47.546;19.254;2024-01-15T02:38:02;0.10;79.80
51215;DHT22;63849;47.546;19.254;2024-01-15T02:40:28;0.00;79.50
51215;DHT22;63849;47.546;19.254;2024-01-15T02:42:53;-0.10;80.00
51215;DHT22;63849;47.546;19.254;2024-01-15T02:45:21;0.00;79.70
51215;DHT22;63849;47.546;19.254;2024-01-15T02:47:47;0.00;79.70
51215;DHT22;63849;47.546;19.254;2024-01-15T02:50:12;-0.10;79.80
51215;DHT22;63849;47.546;19.254;2024-01-15T02:52:38;-0.20;80.40
51215;DHT22;63849;47.546;19.254;2024-01-15T02:55:04;-0.20;80.20
51215;DHT22;63849;47.546;19.254;2024-01-15T02:57:30;-0.10;80.10
51215;DHT22;63849;47.546;19.254;2024-01-15T02:59:55;-0.20;80.40
51215;DHT22;63849;47.546;19.254;2024-01-15T03:02:21;-0.30;80.30
51215;DHT22;63849;47.546;19.254;2024-01-15T03:04:47;-0.30;80.40
51215;DHT22;63849;47.546;19.254;2024-01-15T03:07:12;-0.40;80.20
51215;DHT22;63849;47.546;19.254;2024-01-15T03:09:38;-0.50;80.20
51215;DHT22;63849;47.546;19.254;2024-01-15T03:12:04;-0.60;80.30
51215;DHT22;63849;47.546;19.254;2024-01-15T03:14:30;-0.50;80.20
51215;DHT22;63849;47.546;19.254;2024-01-15T03:16:55;-0.40;79.70
51215;DHT22;63849;47.546;19.254;2024-01-15T03:19:21;-0.50;80.00
51215;DHT22;63849;47.546;19.254;2024-01-15T03:21:47;-0.40;79.90
51215;DHT22;63849;47.546;19.254;2024-01-15T03:24:12;-0.40;79.90
51215;DHT22;63849;47.546;19.254;2024-01-15T03:26:38;-0.60;80.20
51215;DHT22;63849;47.546;19.254;2024-01-15T03:29:04;-0.60;80.10
51215;DHT22;63849;47.546;19.254;2024-01-15T03:31:30;-0.50;80.00
51215;DHT22;63849;47.546;19.254;2024-01-15T03:33:56;-0.50;80.60
51215;DHT22;63849;47.546;19.254;2024-01-15T03:36:22;-0.50;80.40
51215;DHT22;63849;47.546;19.254;2024-01-15T03:38:47;-0.50;80.50
51215;DHT22;63849;47.546;19.254;2024-01-15T03:41:13;-0.40;80.40
51215;DHT22;63849;47.546;19.254;2024-01-15T03:43:39;-0.40;80.10
51215;DHT22;63849;47.546;19.254;2024-01-15T03:46:05;-0.50;80.00
51215;DHT22;63849;47.546;19.254;2024-01-15T03:48:31;-0.50;80.30
51215;DHT22;63849;47.546;19.254;2024-01-15T03:50:57;-0.60;80.10
51215;DHT22;63849;47.546;19.254;2024-01-15T03:53:22;-0.60;80.20
51215;DHT22;63849;47.546;19.254;2024-01-15T03:55:48;-0.60;79.50
51215;DHT22;63849;47.546;19.254;2024-01-15T03:58:14;-0.70;80.70
51215;DHT22;63849;47.546;19.254;2024-01-15T04:00:41;-0.60;80.70
51215;DHT22;63849;47.546;19.254;2024-01-15T04:03:06;-0.50;80.10
51215;DHT22;63849;47.546;19.254;2024-01-15T04:05:32;-0.70;80.30
51215;DHT22;63849;47.546;19.254;2024-01-15T04:07:58;-0.60;80.40
51215;DHT22;63849;47.546;19.254;2024-01-15T04:10:23;-0.50;79.40
51215;DHT22;63849;47.546;19.254;2024-01-15T04:12:49;-0.60;80.10
51215;DHT22;63849;47.546;19.254;2024-01-15T04:15:15;-0.70;79.90
51215;DHT22;63849;47.546;19.254;2024-01-15T04:17:40;-0.60;79.70
51215;DHT22;63849;47.546;19.254;2024-01-15T04:20:07;-0.60;79.40
51215;DHT22;63849;47.546;19.254;2024-01-15T04:22:36;-0.80;79.40
51215;DHT22;63849;47.546;19.254;2024-01-15T04:25:02;-0.80;80.00
51215;DHT22;63849;47.546;19.254;2024-01-15T04:27:28;-0.90;79.80
51215;DHT22;63849;47.546;19.254;2024-01-15T04:29:53;-0.90;79.90
51215;DHT22;63849;47.546;19.254;2024-01-15T04:32:19;-1.10;79.80
51215;DHT22;63849;47.546;19.254;2024-01-15T04:34:45;-1.10;80.10
51215;DHT22;63849;47.546;19.254;2024-01-15T04:37:11;-0.90;80.30
51215;DHT22;63849;47.546;19.254;2024-01-15T04:39:36;-1.10;80.50
51215;DHT22;63849;47.546;19.254;2024-01-15T04:42:02;-1.10;80.30
51215;DHT22;63849;47.546;19.254;2024-01-15T04:44:28;-1.10;80.20
51215;DHT22;63849;47.546;19.254;2024-01-15T04:46:54;-1.20;79.50
51215;DHT22;63849;47.546;19.254;2024-01-15T04:49:20;-1.20;80.30
51215;DHT22;63849;47.546;19.254;2024-01-15T04:51:45;-1.20;80.00
51215;DHT22;63849;47.546;19.254;2024-01-15T04:54:11;-1.10;79.60
51215;DHT22;63849;47.546;19.254;2024-01-15T04:56:37;-1.20;79.40
51215;DHT22;63849;47.546;19.254;2024-01-15T04:59:03;-1.30;79.60
51215;DHT22;63849;47.546;19.254;2024-01-15T05:01:34;-1.30;80.20
51215;DHT22;63849;47.546;19.254;2024-01-15T05:04:00;-1.30;79.70
51215;DHT22;63849;47.546;19.254;2024-01-15T05:06:26;-1.30;79.70
51215;DHT22;63849;47.546;19.254;2024-01-15T05:08:51;-1.40;79.80
51215;DHT22;63849;47.546;19.254;2024-01-15T05:11:17;-1.30;78.90
51215;DHT22;63849;47.546;19.254;2024-01-15T05:13:43;-1.20;79.00
51215;DHT22;63849;47.546;19.254;2024-01-15T05:16:09;-1.30;78.70
51215;DHT22;63849;47.546;19.254;2024-01-15T05:18:34;-1.30;79.00
51215;DHT22;63849;47.546;19.254;2024-01-15T05:21:00;-1.50;78.80
51215;DHT22;63849;47.546;19.254;2024-01-15T05:23:25;-1.40;79.10
51215;DHT22;63849;47.546;19.254;2024-01-15T05:25:51;-1.40;79.00
51215;DHT22;63849;47.546;19.254;2024-01-15T05:28:17;-1.40;79.00
51215;DHT22;63849;47.546;19.254;2024-01-15T05:30:42;-1.50;79.40
51215;DHT22;63849;47.546;19.254;2024-01-15T05:33:08;-1.40;79.40
51215;DHT22;63849;47.546;19.254;2024-01-15T05:35:34;-1.40;79.30
51215;DHT22;63849;47.546;19.254;2024-01-15T05:38:00;-1.50;79.00
51215;DHT22;63849;47.546;19.254;2024-01-15T05:40:26;-1.50;79.00
51215;DHT22;63849;47.546;19.254;2024-01-15T05:42:51;-1.40;79.20
51215;DHT22;63849;47.546;19.254;2024-01-15T05:45:17;-1.50;78.90
51215;DHT22;63849;47.546;19.254;2024-01-15T05:47:43;-1.40;79.00
51215;DHT22;63849;47.546;19.254;2024-01-15T05:50:09;-1.50;78.80
51215;DHT22;63849;47.546;19.254;2024-01-15T05:52:36;-1.50;79.10
51215;DHT22;63849;47.546;19.254;2024-01-15T05:55:01;-1.40;79.20
51215;DHT22;63849;47.546;19.254;2024-01-15T05:57:27;-1.30;79.00
51215;DHT22;63849;47.546;19.254;2024-01-15T05:59:53;-1.20;79.10
51215;DHT22;63849;47.546;19.254;2024-01-15T06:02:19;-1.30;79.30
51215;DHT22;63849;47.546;19.254;2024-01-15T06:04:45;-1.40;79.20
51215;DHT22;63849;47.546;19.254;2024-01-15T06:07:10;-1.40;79.00
51215;DHT22;63849;47.546;19.254;2024-01-15T06:09:36;-1.40;79.30
51215;DHT22;63849;47.546;19.254;2024-01-15T06:12:02;-1.40;78.90
51215;DHT22;63849;47.546;19.254;2024-01-15T06:14:28;-1.30;79.20
51215;DHT22;63849;47.546;19.254;2024-01-15T06:16:53;-1.40;79.60
51215;DHT22;63849;47.546;19.254;2024-01-15T06:19:19;-1.30;79.80
51215;DHT22;63849;47.546;19.254;2024-01-15T06:21:45;-1.20;79.70
51215;DHT22;63849;47.546;19.254;2024-01-15T06:24:10;-1.40;79.90
51215;DHT22;63849;47.546;19.254;2024-01-15T06:26:36;-1.40;80.00
51215;DHT22;63849;47.546;19.254;2024-01-15T06:29:02;-1.40;80.10
51215;DHT22;63849;47.546;19.254;2024-01-15T06:31:28;-1.50;80.50
51215;DHT22;63849;47.546;19.254;2024-01-15T06:33:55;-1.40;80.30
51215;DHT22;63849;47.546;19.254;2024-01-15T06:36:21;-1.30;80.10
51215;DHT22;63849;47.546;19.254;2024-01-15T06:38:47;-1.20;80.20
51215;DHT22;63849;47.546;19.254;2024-01-15T06:41:12;-1.20;79.90
51215;DHT22;63849;47.546;19.254;2024-01-15T06:43:38;-1.30;80.00
51215;DHT22;63849;47.546;19.254;2024-01-15T06:46:04;-1.20;80.20
51215;DHT22;63849;47.546;19.254;2024-01-15T06:48:29;-1.20;79.60
51215;DHT22;63849;47.546;19.254;2024-01-15T06:50:55;-1.10;79.70
51215;DHT22;63849;47.546;19.254;2024-01-15T06:53:20;-1.00;79.70
51215;DHT22;63849;47.546;19.254;2024-01-15T06:55:46;-1.00;79.90
51215;DHT22;63849;47.546;19.254;2024-01-15T06:58:12;-1.00;79.50
51215;DHT22;63849;47.546;19.254;2024-01-15T07:00:38;-1.10;79.90
51215;DHT22;63849;47.546;19.254;2024-01-15T07:03:03;-1.10;80.30
51215;DHT22;63849;47.546;19.254;2024-01-15T07:05:29;-1.10;80.10
51215;DHT22;63849;47.546;19.254;2024-01-15T07:07:56;-1.00;80.00
51215;DHT22;63849;47.546;19.254;2024-01-15T07:10:22;-0.90;80.30
51215;DHT22;63849;47.546;19.254;2024-01-15T07:12:47;-1.00;80.50
51215;DHT22;63849;47.546;19.254;2024-01-15T07:15:13;-0.80;80.30
51215;DHT22;63849;47.546;19.254;2024-01-15T07:17:38;-0.90;80.40
51215;DHT22;63849;47.546;19.254;2024-01-15T07:20:06;-0.90;80.80
51215;DHT22;63849;47.546;19.254;2024-01-15T07:22:33;-0.80;80.80
51215;DHT22;63849;47.546;19.254;2024-01-15T07:24:59;-0.90;80.70
51215;DHT22;63849;47.546;19.254;2024-01-15T07:27:25;-1.10;81.20
51215;DHT22;63849;47.546;19.254;2024-01-15T07:29:51;-1.10;81.20
51215;DHT22;63849;47.546;19.254;2024-01-15T07:32:17;-1.10;81.10
51215;DHT22;63849;47.546;19.254;2024-01-15T07:34:43;-1.00;80.90
51215;DHT22;63849;47.546;19.254;2024-01-15T07:37:09;-1.10;80.90
51215;DHT22;63849;47.546;19.254;2024-01-15T07:39:34;-1.00;80.70
51215;DHT22;63849;47.546;19.254;2024-01-15T07:42:00;-1.10;80.80
51215;DHT22;63849;47.546;19.254;2024-01-15T07:44:26;-1.10;81.30
51215;DHT22;63849;47.546;19.254;2024-01-15T07:46:52;-1.10;81.20
51215;DHT22;63849;47.546;19.254;2024-01-15T07:49:17;-1.10;81.00
51215;DHT22;63849;47.546;19.254;2024-01-15T07:51:43;-1.10;81.40
51215;DHT22;63849;47.546;19.254;2024-01-15T07:54:09;-1.20;81.20
51215;DHT22;63849;47.546;19.254;2024-01-15T07:57:02;-1.20;81.70
51215;DHT22;63849;47.546;19.254;2024-01-15T07:59:31;-1.20;81.70
51215;DHT22;63849;47.546;19.254;2024-01-15T08:01:58;-1.20;81.30
51215;DHT22;63849;47.546;19.254;2024-01-15T08:04:24;-1.10;81.10
51215;DHT22;63849;47.546;19.254;2024-01-15T08:06:50;-1.30;81.60
51215;DHT22;63849;47.546;19.254;2024-01-15T08:09:16;-1.10;81.70
51215;DHT22;63849;47.546;19.254;2024-01-15T08:11:43;-1.10;81.60
51215;DHT22;63849;47.546;19.254;2024-01-15T08:14:09;-0.90;81.70
51215;DHT22;63849;47.546;19.254;2024-01-15T08:16:38;-0.80;81.50
51215;DHT22;63849;47.546;19.254;2024-01-15T08:19:04;-0.60;81.20
51215;DHT22;63849;47.546;19.254;2024-01-15T08:21:30;-0.60;81.10
51215;DHT22;63849;47.546;19.254;2024-01-15T08:24:00;-0.60;81.70
51215;DHT22;63849;47.546;19.254;2024-01-15T08:26:28;-0.50;81.90
51215;DHT22;63849;47.546;19.254;2024-01-15T08:28:53;-0.30;81.90
51215;DHT22;63849;47.546;19.254;2024-01-15T08:31:19;-0.20;81.80
51215;DHT22;63849;47.546;19.254;2024-01-15T08:33:45;-0.20;81.70
51215;DHT22;63849;47.546;19.254;2024-01-15T08:36:11;-0.10;81.00
51215;DHT22;63849;47.546;19.254;2024-01-15T08:38:37;-0.10;80.90
51215;DHT22;63849;47.546;19.254;2024-01-15T08:41:03;0.00;80.10
51215;DHT22;63849;47.546;19.254;2024-01-15T08:43:28;0.00;79.80
51215;DHT22;63849;47.546;19.254;2024-01-15T08:49:51;0.20;79.80
51215;DHT22;63849;47.546;19.254;2024-01-15T08:52:17;0.50;78.80
51215;DHT22;63849;47.546;19.254;2024-01-15T08:54:42;0.70;77.50
51215;DHT22;63849;47.546;19.254;2024-01-15T08:57:08;0.70;76.70
51215;DHT22;63849;47.546;19.254;2024-01-15T08:59:34;0.80;76.70
51215;DHT22;63849;47.546;19.254;2024-01-15T09:01:59;0.80;76.40
51215;DHT22;63849;47.546;19.254;2024-01-15T09:04:25;0.90;76.10
51215;DHT22;63849;47.546;19.254;2024-01-15T09:06:51;0.90;76.10
51215;DHT22;63849;47.546;19.254;2024-01-15T09:09:16;1.00;75.80
51215;DHT22;63849;47.546;19.254;2024-01-15T09:11:42;1.00;75.30
51215;DHT22;63849;47.546;19.254;2024-01-15T09:14:07;1.10;75.40
51215;DHT22;63849;47.546;19.254;2024-01-15T09:16:34;1.10;75.10
51215;DHT22;63849;47.546;19.254;2024-01-15T09:19:00;1.10;74.10
51215;DHT22;63849;47.546;19.254;2024-01-15T09:21:26;1.20;74.80
51215;DHT22;63849;47.546;19.254;2024-01-15T09:23:51;1.20;74.00
51215;DHT22;63849;47.546;19.254;2024-01-15T09:26:17;1.30;73.20
51215;DHT22;63849;47.546;19.254;2024-01-15T09:28:43;1.30;73.70
51215;DHT22;63849;47.546;19.254;2024-01-15T09:31:08;1.40;72.90
51215;DHT22;63849;47.546;19.254;2024-01-15T09:33:34;1.50;72.30
51215;DHT22;63849;47.546;19.254;2024-01-15T09:36:03;1.60;69.90
51215;DHT22;63849;47.546;19.254;2024-01-15T09:38:30;1.70;71.40
51215;DHT22;63849;47.546;19.254;2024-01-15T09:40:57;1.70;71.50
51215;DHT22;63849;47.546;19.254;2024-01-15T09:43:23;1.70;71.00
51215;DHT22;63849;47.546;19.254;2024-01-15T09:45:53;1.80;71.20
51215;DHT22;63849;47.546;19.254;2024-01-15T09:48:19;1.80;70.50
51215;DHT22;63849;47.546;19.254;2024-01-15T09:50:45;1.80;69.20
51215;DHT22;63849;47.546;19.254;2024-01-15T09:53:11;1.80;68.30
51215;DHT22;63849;47.546;19.254;2024-01-15T09:55:41;1.90;68.80
51215;DHT22;63849;47.546;19.254;2024-01-15T09:58:07;2.00;67.90
51215;DHT22;63849;47.546;19.254;2024-01-15T10:00:33;2.10;67.90
51215;DHT22;63849;47.546;19.254;2024-01-15T10:03:03;2.20;67.10
51215;DHT22;63849;47.546;19.254;2024-01-15T10:05:29;2.20;65.70
51215;DHT22;63849;47.546;19.254;2024-01-15T10:07:56;2.20;65.80
51215;DHT22;63849;47.546;19.254;2024-01-15T10:10:23;2.30;66.40
51215;DHT22;63849;47.546;19.254;2024-01-15T10:12:49;2.30;65.30
51215;DHT22;63849;47.546;19.254;2024-01-15T10:15:15;2.40;64.40
51215;DHT22;63849;47.546;19.254;2024-01-15T10:17:42;2.40;63.60
51215;DHT22;63849;47.546;19.254;2024-01-15T10:20:10;2.40;64.60
51215;DHT22;63849;47.546;19.254;2024-01-15T10:22:40;2.50;63.40
51215;DHT22;63849;47.546;19.254;2024-01-15T10:25:06;2.50;64.30
51215;DHT22;63849;47.546;19.254;2024-01-15T10:27:35;2.50;64.60
51215;DHT22;63849;47.546;19.254;2024-01-15T10:30:01;2.60;64.40
51215;DHT22;63849;47.546;19.254;2024-01-15T10:32:28;2.60;64.80
51215;DHT22;63849;47.546;19.254;2024-01-15T10:35:14;2.70;63.90
51215;DHT22;63849;47.546;19.254;2024-01-15T10:37:41;2.80;62.50
51215;DHT22;63849;47.546;19.254;2024-01-15T10:40:07;2.80;62.00
51215;DHT22;63849;47.546;19.254;2024-01-15T10:42:33;2.80;62.80
51215;DHT22;63849;47.546;19.254;2024-01-15T10:44:59;2.80;62.60
51215;DHT22;63849;47.546;19.254;2024-01-15T10:47:24;2.80;62.30
51215;DHT22;63849;47.546;19.254;2024-01-15T10:49:50;2.80;62.50
51215;DHT22;63849;47.546;19.254;2024-01-15T10:52:17;2.80;62.40
51215;DHT22;63849;47.546;19.254;2024-01-15T10:54:43;2.80;61.30
51215;DHT22;63849;47.546;19.254;2024-01-15T10:57:09;2.80;61.90
51215;DHT22;63849;47.546;19.254;2024-01-15T10:59:36;2.80;61.00
51215;DHT22;63849;47.546;19.254;2024-01-15T11:02:22;2.80;61.60
51215;DHT22;63849;47.546;19.254;2024-01-15T11:04:48;2.80;61.90
51215;DHT22;63849;47.546;19.254;2024-01-15T11:07:14;2.90;62.00
51215;DHT22;63849;47.546;19.254;2024-01-15T11:09:40;2.90;61.50
51215;DHT22;63849;47.546;19.254;2024-01-15T11:12:13;2.80;61.80
51215;DHT22;63849;47.546;19.254;2024-01-15T11:14:39;2.90;62.30
51215;DHT22;63849;47.546;19.254;2024-01-15T11:17:05;3.00;62.30
51215;DHT22;63849;47.546;19.254;2024-01-15T11:19:45;3.00;62.00
51215;DHT22;63849;47.546;19.254;2024-01-15T11:24:57;3.20;62.70
51215;DHT22;63849;47.546;19.254;2024-01-15T11:27:49;3.30;61.90
51215;DHT22;63849;47.546;19.254;2024-01-15T11:30:17;3.30;62.00
51215;DHT22;63849;47.546;19.254;2024-01-15T11:32:45;3.30;61.90
51215;DHT22;63849;47.546;19.254;2024-01-15T11:35:12;3.30;61.80
51215;DHT22;63849;47.546;19.254;2024-01-15T11:40:36;3.30;62.30
51215;DHT22;63849;47.546;19.254;2024-01-15T11:43:04;3.40;62.40
51215;DHT22;63849;47.546;19.254;2024-01-15T11:45:31;3.40;61.70
51215;DHT22;63849;47.546;19.254;2024-01-15T11:48:06;3.50;61.70
51215;DHT22;63849;47.546;19.254;2024-01-15T11:50:34;3.50;60.90
51215;DHT22;63849;47.546;19.254;2024-01-15T11:53:03;3.60;61.40
51215;DHT22;63849;47.546;19.254;2024-01-15T11:55:41;3.50;61.00
51215;DHT22;63849;47.546;19.254;2024-01-15T11:58:10;3.50;61.40
51215;DHT22;63849;47.546;19.254;2024-01-15T12:00:47;3.50;61.50
51215;DHT22;63849;47.546;19.254;2024-01-15T12:03:14;3.50;60.50
51215;DHT22;63849;47.546;19.254;2024-01-15T12:05:40;3.50;61.20
51215;DHT22;63849;47.546;19.254;2024-01-15T12:08:07;3.40;60.90
51215;DHT22;63849;47.546;19.254;2024-01-15T12:10:36;3.50;60.90
51215;DHT22;63849;47.546;19.254;2024-01-15T12:13:12;3.50;61.30
51215;DHT22;63849;47.546;19.254;2024-01-15T12:15:42;3.50;61.00
51215;DHT22;63849;47.546;19.254;2024-01-15T12:18:09;3.50;61.00
51215;DHT22;63849;47.546;19.254;2024-01-15T12:20:35;3.60;60.20
51215;DHT22;63849;47.546;19.254;2024-01-15T12:23:02;3.60;60.40
51215;DHT22;63849;47.546;19.254;2024-01-15T12:25:31;3.60;60.10
51215;DHT22;63849;47.546;19.254;2024-01-15T12:27:58;3.60;60.20
51215;DHT22;63849;47.546;19.254;2024-01-15T12:30:26;3.60;60.00
51215;DHT22;63849;47.546;19.254;2024-01-15T12:32:52;3.60;59.50
51215;DHT22;63849;47.546;19.254;2024-01-15T12:35:17;3.60;59.70
51215;DHT22;63849;47.546;19.254;2024-01-15T12:37:43;3.60;59.40
51215;DHT22;63849;47.546;19.254;2024-01-15T12:40:12;3.50;59.80
51215;DHT22;63849;47.546;19.254;2024-01-15T12:42:40;3.50;59.80
51215;DHT22;63849;47.546;19.254;2024-01-15T12:45:06;3.50;60.30
51215;DHT22;63849;47.546;19.254;2024-01-15T12:47:32;3.50;60.20
51215;DHT22;63849;47.546;19.254;2024-01-15T12:49:58;3.50;60.20
51215;DHT22;63849;47.546;19.254;2024-01-15T12:52:29;3.50;60.60
51215;DHT22;63849;47.546;19.254;2024-01-15T12:54:56;3.50;60.80
51215;DHT22;63849;47.546;19.254;2024-01-15T12:57:22;3.50;60.50
51215;DHT22;63849;47.546;19.254;2024-01-15T12:59:49;3.40;60.00
51215;DHT22;63849;47.546;19.254;2024-01-15T13:02:15;3.40;59.90
51215;DHT22;63849;47.546;19.254;2024-01-15T13:04:42;3.40;60.10
51215;DHT22;63849;47.546;19.254;2024-01-15T13:07:08;3.50;59.70
51215;DHT22;63849;47.546;19.254;2024-01-15T13:09:35;3.50;59.90
51215;DHT22;63849;47.546;19.254;2024-01-15T13:12:02;3.40;60.20
51215;DHT22;63849;47.546;19.254;2024-01-15T13:14:28;3.40;59.80
51215;DHT22;63849;47.546;19.254;2024-01-15T13:16:53;3.40;60.30
51215;DHT22;63849;47.546;19.254;2024-01-15T13:19:20;3.40;60.10
51215;DHT22;63849;47.546;19.254;2024-01-15T13:21:47;3.30;60.40
51215;DHT22;63849;47.546;19.254;2024-01-15T13:24:13;3.30;60.40
51215;DHT22;63849;47.546;19.254;2024-01-15T13:26:39;3.30;60.10
51215;DHT22;63849;47.546;19.254;2024-01-15T13:29:05;3.30;60.40
51215;DHT22;63849;47.546;19.254;2024-01-15T13:31:31;3.30;60.90
51215;DHT22;63849;47.546;19.254;2024-01-15T13:33:57;3.30;60.80
51215;DHT22;63849;47.546;19.254;2024-01-15T13:36:24;3.30;61.00
51215;DHT22;63849;47.546;19.254;2024-01-15T13:38:50;3.30;61.10
51215;DHT22;63849;47.546;19.254;2024-01-15T13:41:17;3.30;61.10
51215;DHT22;63849;47.546;19.254;2024-01-15T13:43:49;3.30;61.10
51215;DHT22;63849;47.546;19.254;2024-01-15T13:46:15;3.30;61.40
51215;DHT22;63849;47.546;19.254;2024-01-15T13:48:40;3.20;61.30
51215;DHT22;63849;47.546;19.254;2024-01-15T13:51:06;3.20;61.70
51215;DHT22;63849;47.546;19.254;2024-01-15T13:53:32;3.20;61.80
51215;DHT22;63849;47.546;19.254;2024-01-15T13:55:57;3.20;61.80
51215;DHT22;63849;47.546;19.254;2024-01-15T13:58:23;3.20;62.00
51215;DHT22;63849;47.546;19.254;2024-01-15T14:00:51;3.20;62.40
51215;DHT22;63849;47.546;19.254;2024-01-15T14:03:17;3.20;62.40
51215;DHT22;63849;47.546;19.254;2024-01-15T14:05:44;3.20;62.90
51215;DHT22;63849;47.546;19.254;2024-01-15T14:08:10;3.20;62.90
51215;DHT22;63849;47.546;19.254;2024-01-15T14:10:36;3.10;62.80
51215;DHT22;63849;47.546;19.254;2024-01-15T14:13:02;3.10;63.00
51215;DHT22;63849;47.546;19.254;2024-01-15T14:15:29;3.10;63.20
51215;DHT22;63849;47.546;19.254;2024-01-15T14:17:54;3.10;63.40
51215;DHT22;63849;47.546;19.254;2024-01-15T14:20:20;3.00;63.50
51215;DHT22;63849;47.546;19.254;2024-01-15T14:22:47;3.00;63.80
51215;DHT22;63849;47.546;19.254;2024-01-15T14:25:13;3.00;63.80
51215;DHT22;63849;47.546;19.254;2024-01-15T14:27:39;2.90;63.80
51215;DHT22;63849;47.546;19.254;2024-01-15T14:30:05;2.80;63.60
51215;DHT22;63849;47.546;19.254;2024-01-15T14:32:31;2.80;64.00
51215;DHT22;63849;47.546;19.254;2024-01-15T14:34:57;2.80;64.10
51215;DHT22;63849;47.546;19.254;2024-01-15T14:37:22;2.80;64.10
51215;DHT22;63849;47.546;19.254;2024-01-15T14:40:00;2.70;64.20
51215;DHT22;63849;47.546;19.254;2024-01-15T14:42:26;2.70;64.30
51215;DHT22;63849;47.546;19.254;2024-01-15T14:44:51;2.70;64.40
51215;DHT22;63849;47.546;19.254;2024-01-15T14:47:17;2.60;64.90
51215;DHT22;63849;47.546;19.254;2024-01-15T14:49:44;2.60;65.40
51215;DHT22;63849;47.546;19.254;2024-01-15T14:52:10;2.60;65.50
51215;DHT22;63849;47.546;19.254;2024-01-15T14:54:35;2.60;65.40
51215;DHT22;63849;47.546;19.254;2024-01-15T14:57:01;2.60;65.30
51215;DHT22;63849;47.546;19.254;2024-01-15T14:59:27;2.60;65.30
51215;DHT22;63849;47.546;19.254;2024-01-15T15:01:54;2.70;65.40
51215;DHT22;63849;47.546;19.254;2024-01-15T15:04:20;2.70;65.60
51215;DHT22;63849;47.546;19.254;2024-01-15T15:06:45;2.70;65.50
51215;DHT22;63849;47.546;19.254;2024-01-15T15:09:11;2.70;65.30
51215;DHT22;63849;47.546;19.254;2024-01-15T15:11:37;2.70;65.60
51215;DHT22;63849;47.546;19.254;2024-01-15T15:14:03;2.70;65.70
51215;DHT22;63849;47.546;19.254;2024-01-15T15:16:31;2.80;65.60
51215;DHT22;63849;47.546;19.254;2024-01-15T15:18:57;2.70;65.40
51215;DHT22;63849;47.546;19.254;2024-01-15T15:21:23;2.70;65.30
51215;DHT22;63849;47.546;19.254;2024-01-15T15:23:48;2.60;65.80
51215;DHT22;63849;47.546;19.254;2024-01-15T15:26:14;2.60;66.00
51215;DHT22;63849;47.546;19.254;2024-01-15T15:28:39;2.60;66.10
51215;DHT22;63849;47.546;19.254;2024-01-15T15:31:08;2.60;65.90